createdAt,value
2018-02-06T00:00:03.823Z,8.60
2018-02-06T00:02:32.368Z,8.50
2018-02-06T00:05:00.604Z,8.67
2018-02-06T00:07:28.899Z,8.70
2018-02-06T00:09:57.176Z,9.00
2018-02-06T00:12:25.458Z,9.20
2018-02-06T00:14:53.731Z,8.90
2018-02-06T00:17:22.024Z,8.70
2018-02-06T00:19:50.283Z,9.23
2018-02-06T00:22:18.582Z,9.53
2018-02-06T00:24:46.841Z,8.67
2018-02-06T00:27:15.175Z,8.90
2018-02-06T00:29:44.008Z,9.33
2018-02-06T00:32:12.300Z,9.07
2018-02-06T00:34:40.653Z,9.33
2018-02-06T00:37:08.930Z,9.13
2018-02-06T00:39:37.213Z,8.90
2018-02-06T00:42:05.496Z,9.20
2018-02-06T00:44:33.789Z,8.80
2018-02-06T00:47:02.145Z,7.77
2018-02-06T00:49:30.429Z,8.03
2018-02-06T00:51:58.741Z,8.37
2018-02-06T00:54:27.039Z,8.60
2018-02-06T00:56:55.360Z,9.70
2018-02-06T00:59:23.623Z,8.82
2018-02-06T01:01:51.943Z,8.38
2018-02-06T01:04:20.203Z,9.63
2018-02-06T01:06:48.526Z,8.93
2018-02-06T01:09:16.803Z,9.13
2018-02-06T01:11:45.123Z,9.47
2018-02-06T01:14:13.386Z,9.13
2018-02-06T01:16:41.683Z,9.33
2018-02-06T01:19:09.979Z,8.97
2018-02-06T01:21:38.230Z,10.30
2018-02-06T01:24:06.556Z,10.20
2018-02-06T01:26:34.831Z,9.20
2018-02-06T01:29:03.139Z,9.70
2018-02-06T01:31:31.412Z,9.57
2018-02-06T01:33:59.702Z,9.40
2018-02-06T01:36:27.987Z,9.33
2018-02-06T01:38:56.269Z,8.93
2018-02-06T01:41:24.539Z,10.05
2018-02-06T01:43:52.865Z,9.67
2018-02-06T01:46:21.169Z,9.47
2018-02-06T01:48:49.470Z,10.37
2018-02-06T01:51:17.747Z,9.67
2018-02-06T01:53:46.019Z,10.30
2018-02-06T01:56:14.349Z,10.03
2018-02-06T01:58:42.616Z,10.17
2018-02-06T02:01:10.907Z,9.90
2018-02-06T02:03:39.192Z,10.40
2018-02-06T02:06:07.918Z,10.60
2018-02-06T02:08:36.191Z,11.03
2018-02-06T02:11:05.436Z,10.30
2018-02-06T02:13:33.761Z,9.80
2018-02-06T02:16:02.023Z,9.67
2018-02-06T02:18:30.323Z,11.03
2018-02-06T02:20:58.643Z,10.70
2018-02-06T02:23:26.953Z,10.50
2018-02-06T02:25:55.251Z,10.30
2018-02-06T02:28:23.542Z,9.23
2018-02-06T02:30:51.877Z,10.83
2018-02-06T02:33:21.436Z,10.98
2018-02-06T02:35:49.720Z,10.50
2018-02-06T02:38:18.023Z,10.17
2018-02-06T02:40:46.324Z,10.33
2018-02-06T04:39:28.351Z,10.50
2018-02-06T04:41:57.305Z,10.33
2018-02-06T04:44:25.583Z,11.70
2018-02-06T04:46:54.164Z,11.23
2018-02-06T04:49:22.422Z,11.53
2018-02-06T04:51:50.723Z,11.07
2018-02-06T04:54:19.037Z,11.20
2018-02-06T04:56:47.379Z,11.40
2018-02-06T04:59:15.658Z,12.73
2018-02-06T05:01:43.919Z,11.27
2018-02-06T05:04:12.229Z,11.10
2018-02-06T05:06:40.550Z,11.17
2018-02-06T05:09:08.864Z,11.70
2018-02-06T05:11:37.143Z,12.20
2018-02-06T05:14:05.448Z,12.00
2018-02-06T05:16:33.751Z,11.93
2018-02-06T05:19:02.089Z,11.88
2018-02-06T05:21:30.459Z,11.60
2018-02-06T05:23:58.744Z,11.47
2018-02-06T05:26:27.020Z,11.67
2018-02-06T05:28:55.336Z,11.40
2018-02-06T05:31:23.647Z,12.00
2018-02-06T05:33:51.913Z,11.37
2018-02-06T05:36:20.241Z,12.37
2018-02-06T05:38:48.517Z,11.80
2018-02-06T05:41:16.828Z,11.57
2018-02-06T05:43:45.096Z,11.63
2018-02-06T05:46:13.603Z,12.20
2018-02-06T05:48:41.886Z,12.53
2018-02-06T05:51:10.155Z,11.20
2018-02-06T05:53:38.483Z,11.73
2018-02-06T05:56:06.837Z,11.43
2018-02-06T05:58:35.150Z,11.90
2018-02-06T06:01:03.433Z,12.03
2018-02-06T06:03:31.722Z,11.60
2018-02-06T06:06:00.001Z,12.00
2018-02-06T06:08:28.331Z,11.73
2018-02-06T06:10:56.602Z,11.33
2018-02-06T06:13:24.913Z,12.45
2018-02-06T06:15:53.192Z,12.20
2018-02-06T06:18:21.475Z,12.23
2018-02-06T06:20:49.792Z,12.00
2018-02-06T06:23:18.066Z,12.50
2018-02-06T06:25:46.362Z,12.07
2018-02-06T06:28:14.646Z,14.63
2018-02-06T06:30:42.961Z,13.30
2018-02-06T06:33:11.241Z,12.90
2018-02-06T06:35:39.566Z,13.27
2018-02-06T06:38:07.846Z,13.50
2018-02-06T06:40:36.195Z,12.82
2018-02-06T06:43:05.222Z,12.52
2018-02-06T06:45:33.533Z,12.30
2018-02-06T06:48:01.817Z,14.43
2018-02-06T06:50:30.110Z,12.65
2018-02-06T06:52:58.387Z,14.13
2018-02-06T06:55:26.728Z,12.73
2018-02-06T06:57:55.146Z,11.57
2018-02-06T07:00:23.485Z,12.50
2018-02-06T07:02:51.930Z,12.83
2018-02-06T07:05:20.269Z,13.60
2018-02-06T07:07:48.670Z,12.73
2018-02-06T07:10:16.971Z,12.80
2018-02-06T07:12:45.248Z,12.73
2018-02-06T07:15:13.588Z,12.13
2018-02-06T07:17:41.970Z,12.40
2018-02-06T07:20:10.241Z,12.73
2018-02-06T07:22:38.518Z,12.83
2018-02-06T07:25:06.982Z,13.70
2018-02-06T07:27:35.355Z,14.17
2018-02-06T07:30:03.643Z,13.80
2018-02-06T07:32:32.022Z,12.43
2018-02-06T07:35:00.293Z,12.87
2018-02-06T07:37:28.566Z,12.67
2018-02-06T07:39:56.847Z,12.73
2018-02-06T07:42:25.155Z,12.70
2018-02-06T07:44:53.415Z,13.18
2018-02-06T07:47:21.758Z,13.73
2018-02-06T07:49:50.048Z,13.50
2018-02-06T07:52:18.355Z,13.55
2018-02-06T07:54:46.629Z,12.27
2018-02-06T07:57:14.898Z,12.95
2018-02-06T07:59:43.896Z,13.50
2018-02-06T08:02:12.188Z,12.60
2018-02-06T08:04:40.503Z,11.85
2018-02-06T08:07:08.802Z,12.88
2018-02-06T08:09:37.102Z,12.50
2018-02-06T08:12:05.373Z,13.87
2018-02-06T08:14:33.644Z,12.83
2018-02-06T08:17:02.004Z,14.60
2018-02-06T08:19:30.294Z,13.35
2018-02-06T08:21:58.648Z,13.27
2018-02-06T08:24:26.960Z,12.80
2018-02-06T08:26:55.299Z,12.40
2018-02-06T08:29:23.603Z,13.03
2018-02-06T08:31:51.879Z,12.45
2018-02-06T08:36:54.602Z,12.57
2018-02-06T08:39:22.961Z,13.50
2018-02-06T08:41:51.243Z,14.20
2018-02-06T08:44:19.549Z,13.65
2018-02-06T08:46:48.079Z,14.33
2018-02-06T08:49:17.087Z,13.33
2018-02-06T08:51:45.386Z,12.90
2018-02-06T08:54:13.708Z,12.97
2018-02-06T08:56:42.039Z,16.67
2018-02-06T08:59:10.300Z,13.70
2018-02-06T09:01:39.401Z,12.20
2018-02-06T09:04:07.710Z,11.73
2018-02-06T09:06:36.555Z,12.13
2018-02-06T09:09:04.927Z,11.83
2018-02-06T09:11:33.949Z,11.50
2018-02-06T09:14:02.247Z,12.00
2018-02-06T09:16:30.556Z,12.57
2018-02-06T09:18:58.844Z,11.13
2018-02-06T09:21:27.136Z,13.90
2018-02-06T09:23:55.447Z,12.40
2018-02-06T09:26:23.724Z,10.57
2018-02-06T09:28:52.088Z,12.30
2018-02-06T09:31:20.348Z,12.18
2018-02-06T09:33:48.655Z,12.07
2018-02-06T09:36:17.093Z,13.80
2018-02-06T09:38:45.366Z,12.73
2018-02-06T09:41:13.684Z,12.80
2018-02-06T09:43:42.647Z,12.30
2018-02-06T09:46:10.987Z,13.40
2018-02-06T09:48:39.364Z,13.00
2018-02-06T09:51:07.687Z,12.90
2018-02-06T09:53:36.594Z,12.25
2018-02-06T09:56:05.102Z,14.17
2018-02-06T09:58:33.443Z,13.00
2018-02-06T10:01:01.743Z,14.50
2018-02-06T10:03:30.142Z,14.33
2018-02-06T10:05:58.451Z,13.70
2018-02-06T10:08:26.740Z,13.23
2018-02-06T10:10:55.015Z,13.30
2018-02-06T10:13:23.354Z,13.85
2018-02-06T10:15:51.958Z,13.40
2018-02-06T10:18:20.334Z,14.17
2018-02-06T10:20:48.667Z,13.83
2018-02-06T10:23:16.930Z,13.13
2018-02-06T10:25:45.247Z,14.23
2018-02-06T10:28:13.532Z,14.03
2018-02-06T10:30:41.832Z,14.80
2018-02-06T10:33:10.113Z,13.82
2018-02-06T10:35:38.469Z,12.75
2018-02-06T10:38:07.298Z,14.67
2018-02-06T10:40:35.556Z,14.73
2018-02-06T10:43:04.748Z,13.45
2018-02-06T10:45:33.684Z,13.67
2018-02-06T10:48:01.986Z,14.23
2018-02-06T10:50:30.262Z,13.30
2018-02-06T10:52:59.524Z,13.30
2018-02-06T10:55:28.123Z,13.80
2018-02-06T10:57:56.436Z,12.73
2018-02-06T11:00:24.729Z,12.40
2018-02-06T11:02:56.692Z,15.00
2018-02-06T11:05:26.940Z,13.03
2018-02-06T11:07:55.264Z,14.65
2018-02-06T11:10:24.128Z,13.62
2018-02-06T11:12:52.460Z,14.07
2018-02-06T11:15:20.820Z,13.43
2018-02-06T11:17:49.104Z,14.50
2018-02-06T11:20:17.385Z,14.82
2018-02-06T11:22:45.679Z,14.03
2018-02-06T11:25:14.031Z,14.87
2018-02-06T11:27:42.299Z,17.60
2018-02-06T11:30:10.596Z,13.30
2018-02-06T11:32:38.919Z,15.03
2018-02-06T11:35:07.294Z,14.77
2018-02-06T11:37:35.571Z,14.17
2018-02-06T11:40:03.871Z,14.40
2018-02-06T11:42:32.306Z,14.10
2018-02-06T11:45:00.609Z,13.93
2018-02-06T11:47:28.935Z,14.93
2018-02-06T11:49:57.212Z,14.00
2018-02-06T11:52:25.513Z,13.82
2018-02-06T11:54:53.774Z,14.23
2018-02-06T11:57:22.148Z,15.23
2018-02-06T11:59:50.447Z,14.10
2018-02-06T12:02:18.783Z,14.50
2018-02-06T12:04:47.049Z,14.40
2018-02-06T12:07:15.336Z,14.20
2018-02-06T12:09:43.703Z,14.93
2018-02-06T12:12:11.989Z,16.03
2018-02-06T12:14:40.648Z,15.75
2018-02-06T12:17:10.525Z,15.13
2018-02-06T12:19:38.878Z,15.63
2018-02-06T12:22:07.148Z,15.30
2018-02-06T12:24:36.298Z,16.60
2018-02-06T12:27:05.649Z,15.07
2018-02-06T12:29:34.036Z,14.50
2018-02-06T12:32:02.339Z,15.27
2018-02-06T12:34:30.677Z,16.43
2018-02-06T12:36:59.034Z,16.10
2018-02-06T12:39:27.337Z,14.00
2018-02-06T12:41:55.707Z,16.70
2018-02-06T12:44:24.100Z,14.77
2018-02-06T12:46:52.409Z,15.40
2018-02-06T12:49:20.791Z,16.17
2018-02-06T12:51:49.544Z,15.90
2018-02-06T12:54:17.825Z,13.20
2018-02-06T12:56:46.127Z,15.23
2018-02-06T12:59:14.570Z,16.23
2018-02-06T13:01:42.924Z,15.67
2018-02-06T13:04:11.395Z,14.73
2018-02-06T13:06:39.749Z,16.13
2018-02-06T13:09:08.931Z,15.50
2018-02-06T13:11:37.205Z,15.60
2018-02-06T13:14:05.587Z,14.87
2018-02-06T13:16:33.918Z,16.67
2018-02-06T13:19:02.219Z,17.00
2018-02-06T13:21:30.499Z,15.07
2018-02-06T13:23:58.822Z,15.30
2018-02-06T13:26:27.126Z,15.60
2018-02-06T13:28:55.737Z,15.40
2018-02-06T13:31:24.030Z,15.40
2018-02-06T13:33:52.373Z,16.65
2018-02-06T13:36:20.752Z,15.57
2018-02-06T13:38:49.028Z,15.60
2018-02-06T13:41:17.413Z,15.07
2018-02-06T13:43:45.689Z,18.00
2018-02-06T13:46:14.161Z,16.40
2018-02-06T13:48:42.557Z,14.57
2018-02-06T13:51:10.848Z,15.90
2018-02-06T13:53:39.173Z,15.85
2018-02-06T13:56:07.473Z,13.93
2018-02-06T13:58:35.864Z,14.67
2018-02-06T14:01:04.643Z,15.90
2018-02-06T14:03:33.850Z,14.80
2018-02-06T14:06:02.449Z,20.60
2018-02-06T14:08:30.778Z,15.90
2018-02-06T14:10:59.075Z,15.90
2018-02-06T14:13:27.430Z,15.70
2018-02-06T14:15:55.794Z,16.57
2018-02-06T14:18:24.109Z,15.47
2018-02-06T14:20:52.955Z,16.70
2018-02-06T14:23:21.691Z,15.68
2018-02-06T14:25:51.272Z,16.67
2018-02-06T14:28:19.571Z,15.57
2018-02-06T14:30:47.935Z,15.70
2018-02-06T14:33:16.211Z,16.37
2018-02-06T14:35:44.562Z,16.05
2018-02-06T14:38:20.359Z,15.93
2018-02-06T14:40:49.316Z,19.83
2018-02-06T14:43:17.625Z,16.10
2018-02-06T14:45:45.936Z,16.40
2018-02-06T14:48:14.200Z,16.70
2018-02-06T14:50:42.511Z,16.47
2018-02-06T14:53:10.804Z,18.00
2018-02-06T14:55:39.111Z,16.90
2018-02-06T14:58:07.472Z,17.13
2018-02-06T15:00:36.493Z,15.93
2018-02-06T15:03:05.350Z,15.15
2018-02-06T15:05:33.622Z,18.03
2018-02-06T15:08:02.013Z,15.83
2018-02-06T15:10:30.273Z,16.50
2018-02-06T15:12:58.767Z,17.90
2018-02-06T15:15:27.145Z,16.20
2018-02-06T15:17:55.536Z,18.77
2018-02-06T15:20:23.920Z,17.70
2018-02-06T15:22:52.248Z,16.60
2018-02-06T15:25:20.579Z,16.17
2018-02-06T15:27:48.907Z,18.37
2018-02-06T15:30:17.236Z,16.60
2018-02-06T15:32:45.609Z,16.70
2018-02-06T15:35:13.963Z,17.33
2018-02-06T15:37:42.295Z,17.20
2018-02-06T15:40:10.641Z,16.60
2018-02-06T15:42:38.913Z,16.27
2018-02-06T15:45:07.986Z,16.07
2018-02-06T15:47:36.327Z,16.97
2018-02-06T15:50:04.946Z,16.17
2018-02-06T15:52:33.228Z,17.40
2018-02-06T15:55:01.503Z,17.43
2018-02-06T15:57:30.804Z,17.37
2018-02-06T15:59:59.110Z,18.80
2018-02-06T16:02:27.433Z,17.83
2018-02-06T16:04:55.744Z,17.70
2018-02-06T16:07:24.105Z,14.95
2018-02-06T16:09:52.455Z,16.80
2018-02-06T16:12:20.798Z,17.40
2018-02-06T16:14:49.115Z,18.03
2018-02-06T16:17:17.418Z,17.17
2018-02-06T16:19:45.724Z,18.20
2018-02-06T16:22:14.000Z,16.03
2018-02-06T16:24:42.321Z,16.60
2018-02-06T16:27:10.616Z,15.73
2018-02-06T16:29:39.112Z,16.13
2018-02-06T16:32:07.396Z,17.87
2018-02-06T16:34:35.738Z,18.30
2018-02-06T16:37:04.953Z,15.63
2018-02-06T16:39:33.273Z,16.73
2018-02-06T16:42:01.551Z,16.60
2018-02-06T16:44:29.887Z,17.90
2018-02-06T16:46:58.246Z,18.07
2018-02-06T16:49:26.507Z,17.40
2018-02-06T16:51:54.844Z,18.98
2018-02-06T16:54:23.244Z,16.57
2018-02-06T16:56:51.557Z,14.83
2018-02-06T16:59:19.861Z,18.40
2018-02-06T17:01:51.850Z,15.93
2018-02-06T17:04:20.603Z,15.33
2018-02-06T17:06:48.952Z,15.97
2018-02-06T17:09:17.259Z,15.75
2018-02-06T17:11:45.684Z,16.90
2018-02-06T17:14:14.060Z,17.73
2018-02-06T17:16:42.382Z,16.40
2018-02-06T17:19:10.679Z,17.47
2018-02-06T17:21:38.972Z,17.10
2018-02-06T17:24:07.284Z,19.43
2018-02-06T17:26:35.629Z,16.90
2018-02-06T17:29:03.982Z,17.20
2018-02-06T17:31:32.255Z,15.82
2018-02-06T17:34:00.533Z,17.00
2018-02-06T17:36:28.836Z,16.93
2018-02-06T17:38:57.146Z,16.40
2018-02-06T17:41:26.217Z,17.13
2018-02-06T17:43:54.556Z,16.93
2018-02-06T17:46:22.881Z,17.45
2018-02-06T17:48:51.154Z,21.20
2018-02-06T17:51:19.426Z,17.53
2018-02-06T17:53:47.727Z,16.93
2018-02-06T17:56:16.013Z,17.25
2018-02-06T17:58:44.303Z,18.10
2018-02-06T18:01:12.597Z,17.17
2018-02-06T18:03:40.956Z,16.63
2018-02-06T18:06:09.249Z,17.17
2018-02-06T18:08:37.530Z,17.57
2018-02-06T18:11:05.898Z,16.13
2018-02-06T18:13:34.186Z,16.67
2018-02-06T18:16:02.483Z,17.60
2018-02-06T18:18:30.758Z,16.40
2018-02-06T18:20:59.051Z,17.77
2018-02-06T18:23:27.328Z,17.60
2018-02-06T18:25:55.624Z,19.17
2018-02-06T18:28:23.933Z,17.25
2018-02-06T18:30:52.221Z,18.90
2018-02-06T18:33:20.814Z,16.40
2018-02-06T18:35:49.104Z,18.07
2018-02-06T18:38:17.417Z,17.65
2018-02-06T18:40:45.703Z,16.93
2018-02-06T18:43:14.041Z,18.50
2018-02-06T18:45:42.310Z,18.17
2018-02-06T18:48:10.682Z,17.53
2018-02-06T18:50:39.362Z,17.07
2018-02-06T18:53:07.622Z,17.57
2018-02-06T18:55:35.942Z,17.97
2018-02-06T18:58:04.794Z,20.77
2018-02-06T19:00:33.096Z,20.30
2018-02-06T19:03:01.374Z,17.23
2018-02-06T19:05:29.687Z,18.90
2018-02-06T19:07:59.054Z,16.62
2018-02-06T19:10:27.386Z,17.77
2018-02-06T19:12:55.701Z,17.77
2018-02-06T19:15:23.987Z,18.05
2018-02-06T19:17:52.314Z,19.47
2018-02-06T19:20:20.601Z,16.48
2018-02-06T19:22:48.943Z,17.80
2018-02-06T19:25:17.235Z,18.97
2018-02-06T19:27:46.368Z,18.33
2018-02-06T19:30:14.655Z,18.77
2018-02-06T19:32:42.988Z,18.20
2018-02-06T19:35:11.345Z,18.13
2018-02-06T19:37:39.636Z,18.00
2018-02-06T19:40:07.986Z,17.37
2018-02-06T19:42:36.300Z,18.20
2018-02-06T19:45:04.809Z,17.70
2018-02-06T19:47:33.039Z,18.20
2018-02-06T19:50:01.393Z,18.17
2018-02-06T19:52:29.674Z,17.60
2018-02-06T19:54:57.972Z,19.23
2018-02-06T19:57:26.693Z,18.63
2018-02-06T19:59:55.167Z,17.50
2018-02-06T20:02:23.452Z,16.80
2018-02-06T20:04:51.786Z,18.30
2018-02-06T20:07:21.116Z,17.37
2018-02-06T20:09:49.495Z,18.83
2018-02-06T20:12:17.888Z,17.70
2018-02-06T20:14:46.275Z,18.10
2018-02-06T20:17:14.584Z,17.70
2018-02-06T20:19:42.953Z,18.65
2018-02-06T20:22:11.297Z,17.63
2018-02-06T20:24:39.608Z,18.27
2018-02-06T20:27:07.895Z,18.20
2018-02-06T20:29:36.167Z,17.70
2018-02-06T20:32:04.596Z,18.37
2018-02-06T20:34:33.386Z,17.73
2018-02-06T20:37:01.731Z,17.00
2018-02-06T20:39:30.020Z,18.37
2018-02-06T20:41:58.424Z,18.10
2018-02-06T20:44:26.724Z,18.17
2018-02-06T20:46:54.999Z,18.37
2018-02-06T20:49:23.324Z,18.03
2018-02-06T20:51:51.622Z,18.35
2018-02-06T20:54:20.901Z,18.23
2018-02-06T20:56:49.108Z,17.73
2018-02-06T20:59:17.454Z,18.57
2018-02-06T21:01:45.728Z,19.30
2018-02-06T21:04:14.042Z,18.05
2018-02-06T21:06:42.352Z,17.80
2018-02-06T21:09:10.699Z,18.03
2018-02-06T21:11:38.999Z,18.30
2018-02-06T21:14:08.133Z,17.17
2018-02-06T21:16:36.450Z,18.20
2018-02-06T21:19:04.740Z,20.27
2018-02-06T21:21:33.067Z,20.33
2018-02-06T21:24:01.365Z,20.43
2018-02-06T21:26:29.687Z,17.50
2018-02-06T21:28:57.963Z,19.60
2018-02-06T21:31:26.325Z,18.70
2018-02-06T21:33:54.547Z,18.00
2018-02-06T21:36:22.917Z,18.42
2018-02-06T21:38:51.199Z,18.40
2018-02-06T21:41:19.516Z,18.60
2018-02-06T21:43:47.834Z,18.00
2018-02-06T21:46:16.197Z,22.33
2018-02-06T21:48:44.495Z,19.77
2018-02-06T21:51:12.747Z,19.93
2018-02-06T21:53:41.063Z,18.27
2018-02-06T21:56:09.391Z,18.50
2018-02-06T21:58:37.890Z,16.30
2018-02-06T22:01:06.215Z,19.17
2018-02-06T22:03:34.476Z,17.93
2018-02-06T22:06:02.782Z,18.80
2018-02-06T22:08:31.119Z,19.10
2018-02-06T22:10:59.397Z,17.90
2018-02-06T22:13:27.666Z,18.23
2018-02-06T22:15:56.005Z,19.43
2018-02-06T22:18:24.332Z,19.00
2018-02-06T22:20:52.653Z,19.00
2018-02-06T22:23:20.929Z,18.15
2018-02-06T22:25:49.254Z,18.40
2018-02-06T22:28:17.516Z,18.55
2018-02-06T22:30:45.840Z,17.70
2018-02-06T22:33:14.362Z,19.10
2018-02-06T22:35:42.691Z,18.27
2018-02-06T22:38:10.997Z,18.50
2018-02-06T22:40:39.387Z,19.07
2018-02-06T22:43:07.711Z,19.30
2018-02-06T22:45:36.041Z,19.27
2018-02-06T22:48:04.390Z,18.83
2018-02-06T22:50:32.693Z,17.60
2018-02-06T22:53:01.041Z,17.37
2018-02-06T22:55:29.397Z,18.40
2018-02-06T22:57:57.729Z,17.63
2018-02-06T23:00:26.028Z,18.33
2018-02-06T23:02:54.342Z,17.63
2018-02-06T23:05:22.637Z,17.80
2018-02-06T23:07:50.959Z,18.77
2018-02-06T23:10:19.256Z,17.90
2018-02-06T23:12:47.572Z,17.73
2018-02-06T23:15:15.862Z,17.15
2018-02-06T23:17:44.163Z,18.10
2018-02-06T23:20:12.470Z,17.00
2018-02-06T23:22:40.819Z,17.58
2018-02-06T23:25:09.145Z,18.37
2018-02-06T23:27:37.400Z,17.67
2018-02-06T23:30:05.746Z,17.20
2018-02-06T23:32:34.076Z,18.03
2018-02-06T23:35:02.384Z,17.77
2018-02-06T23:37:30.679Z,18.47
2018-02-06T23:39:58.958Z,17.87
2018-02-06T23:42:27.282Z,17.33
2018-02-06T23:44:55.551Z,17.50
2018-02-06T23:47:23.881Z,18.40
2018-02-06T23:49:52.170Z,18.30
2018-02-06T23:52:20.495Z,18.33
2018-02-06T23:54:48.784Z,18.10
2018-02-06T23:57:17.092Z,17.90
2018-02-06T23:59:45.396Z,17.67
